Terminal Aerodrome Forecast
Issued by NWS

Home | Current Version | Previous Version | Text Only | Print | Product List | Glossary On
Versions: 1 2 3 4 5 6 7 8 9 10 11 12 13 14 15 16 17 18 19 20 21 22 23 24 25 26 27 28 29 30 31 32
000
FTAK31 PAFA 151720
TAFATA
TAF
PATA 151720Z 1518/1618 VRB02KT 1SM -SN BR BKN020
     FM152200 08008KT P6SM SCT040 BKN100
     FM160700 08008KT 5SM -SN BR BKN040 OVC100=

USA.gov is the U.S. government's official web portal to all federal, state and local government web resources and services.